sensor_id;sensor_type;location;lat;lon;timestamp;pressure;altitude;pressure_sealevel;temperature;humidity
71195;BME280;58908;51.426;7.714;2024-03-07T00:01:46;100630.91;;;2.12;100.00
71195;BME280;58908;51.426;7.714;2024-03-07T00:04:12;100630.97;;;2.03;100.00
71195;BME280;58908;51.426;7.714;2024-03-07T00:06:40;100637.06;;;2.02;100.00
71195;BME280;58908;51.426;7.714;2024-03-07T00:09:06;100635.41;;;1.92;100.00
71195;BME280;58908;51.426;7.714;2024-03-07T00:11:34;100636.38;;;1.84;100.00
71195;BME280;58908;51.426;7.714;2024-03-07T00:14:01;100637.28;;;1.80;100.00
71195;BME280;58908;51.426;7.714;2024-03-07T00:16:27;100638.16;;;1.77;100.00
71195;BME280;58908;51.426;7.714;2024-03-07T00:18:53;100634.56;;;1.89;100.00
71195;BME280;58908;51.426;7.714;2024-03-07T00:21:20;100642.19;;;2.13;100.00
71195;BME280;58908;51.426;7.714;2024-03-07T00:23:49;100641.47;;;1.94;100.00
71195;BME280;58908;51.426;7.714;2024-03-07T00:26:15;100637.22;;;1.86;100.00
71195;BME280;58908;51.426;7.714;2024-03-07T00:28:41;100640.72;;;1.82;100.00
71195;BME280;58908;51.426;7.714;2024-03-07T00:31:08;100636.44;;;1.75;100.00
71195;BME280;58908;51.426;7.714;2024-03-07T00:33:34;100640.00;;;1.63;100.00
71195;BME280;58908;51.426;7.714;2024-03-07T00:36:00;100646.09;;;1.56;100.00
71195;BME280;58908;51.426;7.714;2024-03-07T00:38:26;100640.91;;;1.56;100.00
71195;BME280;58908;51.426;7.714;2024-03-07T00:40:53;100637.28;;;1.78;100.00
71195;BME280;58908;51.426;7.714;2024-03-07T00:43:20;100632.06;;;1.77;100.00
71195;BME280;58908;51.426;7.714;2024-03-07T00:45:46;100637.13;;;1.95;100.00
71195;BME280;58908;51.426;7.714;2024-03-07T00:48:15;100636.25;;;1.94;100.00
71195;BME280;58908;51.426;7.714;2024-03-07T00:50:41;100638.81;;;2.00;100.00
71195;BME280;58908;51.426;7.714;2024-03-07T00:53:07;100638.69;;;2.14;100.00
71195;BME280;58908;51.426;7.714;2024-03-07T00:55:34;100632.84;;;1.88;100.00
71195;BME280;58908;51.426;7.714;2024-03-07T00:58:01;100632.16;;;1.65;100.00
71195;BME280;58908;51.426;7.714;2024-03-07T01:00:29;100630.47;;;1.59;100.00
71195;BME280;58908;51.426;7.714;2024-03-07T01:02:55;100629.63;;;1.59;100.00
71195;BME280;58908;51.426;7.714;2024-03-07T01:05:22;100637.53;;;1.45;100.00
71195;BME280;58908;51.426;7.714;2024-03-07T01:07:49;100636.69;;;1.37;100.00
71195;BME280;58908;51.426;7.714;2024-03-07T01:10:15;100641.94;;;1.31;100.00
71195;BME280;58908;51.426;7.714;2024-03-07T01:12:41;100642.81;;;1.27;100.00
71195;BME280;58908;51.426;7.714;2024-03-07T01:15:10;100635.09;;;1.23;100.00
71195;BME280;58908;51.426;7.714;2024-03-07T01:17:37;100638.53;;;1.23;100.00
71195;BME280;58908;51.426;7.714;2024-03-07T01:20:04;100624.66;;;1.26;100.00
71195;BME280;58908;51.426;7.714;2024-03-07T01:22:30;100629.88;;;1.26;100.00
71195;BME280;58908;51.426;7.714;2024-03-07T01:24:56;100629.09;;;1.12;100.00
71195;BME280;58908;51.426;7.714;2024-03-07T01:27:22;100630.81;;;1.13;100.00
71195;BME280;58908;51.426;7.714;2024-03-07T01:29:50;100623.88;;;1.10;100.00
71195;BME280;58908;51.426;7.714;2024-03-07T01:32:19;100622.13;;;1.15;100.00
71195;BME280;58908;51.426;7.714;2024-03-07T01:34:46;100629.91;;;1.15;100.00
71195;BME280;58908;51.426;7.714;2024-03-07T01:37:12;100630.84;;;1.02;100.00
71195;BME280;58908;51.426;7.714;2024-03-07T01:39:38;100623.94;;;1.00;100.00
71195;BME280;58908;51.426;7.714;2024-03-07T01:42:04;100623.09;;;0.95;100.00
71195;BME280;58908;51.426;7.714;2024-03-07T01:44:33;100630.91;;;0.92;100.00
71195;BME280;58908;51.426;7.714;2024-03-07T01:46:59;100622.28;;;0.87;100.00
71195;BME280;58908;51.426;7.714;2024-03-07T01:49:29;100624.88;;;0.82;100.00
71195;BME280;58908;51.426;7.714;2024-03-07T01:51:55;100620.56;;;0.77;100.00
71195;BME280;58908;51.426;7.714;2024-03-07T01:54:22;100619.75;;;0.78;100.00
71195;BME280;58908;51.426;7.714;2024-03-07T01:56:49;100614.53;;;0.75;100.00
71195;BME280;58908;51.426;7.714;2024-03-07T01:59:15;100618.88;;;0.74;100.00
71195;BME280;58908;51.426;7.714;2024-03-07T02:01:42;100614.56;;;0.73;100.00
71195;BME280;58908;51.426;7.714;2024-03-07T02:04:08;100618.00;;;0.78;100.00
71195;BME280;58908;51.426;7.714;2024-03-07T02:06:36;100611.03;;;0.80;100.00
71195;BME280;58908;51.426;7.714;2024-03-07T02:09:02;100611.06;;;0.83;100.00
71195;BME280;58908;51.426;7.714;2024-03-07T02:11:30;100604.94;;;0.90;100.00
71195;BME280;58908;51.426;7.714;2024-03-07T02:13:56;100605.69;;;1.15;100.00
71195;BME280;58908;51.426;7.714;2024-03-07T02:16:23;100597.69;;;1.43;100.00
71195;BME280;58908;51.426;7.714;2024-03-07T02:18:49;100596.69;;;1.59;100.00
71195;BME280;58908;51.426;7.714;2024-03-07T02:21:17;100591.53;;;1.58;100.00
71195;BME280;58908;51.426;7.714;2024-03-07T02:23:43;100588.09;;;1.51;100.00
71195;BME280;58908;51.426;7.714;2024-03-07T02:26:10;100590.66;;;1.56;100.00
71195;BME280;58908;51.426;7.714;2024-03-07T02:28:36;100590.78;;;1.36;100.00
71195;BME280;58908;51.426;7.714;2024-03-07T02:31:02;100584.75;;;1.33;100.00
71195;BME280;58908;51.426;7.714;2024-03-07T02:33:29;100582.16;;;1.34;100.00
71195;BME280;58908;51.426;7.714;2024-03-07T02:35:57;100582.13;;;1.40;100.00
71195;BME280;58908;51.426;7.714;2024-03-07T02:38:24;100574.28;;;1.42;100.00
71195;BME280;58908;51.426;7.714;2024-03-07T02:40:51;100580.41;;;1.36;100.00
71195;BME280;58908;51.426;7.714;2024-03-07T02:43:17;100585.78;;;1.14;100.00
71195;BME280;58908;51.426;7.714;2024-03-07T02:45:43;100583.31;;;0.90;100.00
71195;BME280;58908;51.426;7.714;2024-03-07T02:48:09;100586.75;;;0.93;100.00
71195;BME280;58908;51.426;7.714;2024-03-07T02:50:36;100587.63;;;0.92;100.00
71195;BME280;58908;51.426;7.714;2024-03-07T02:53:03;100592.84;;;0.89;100.00
71195;BME280;58908;51.426;7.714;2024-03-07T02:55:31;100592.06;;;0.71;100.00
71195;BME280;58908;51.426;7.714;2024-03-07T02:57:57;100587.78;;;0.59;100.00
71195;BME280;58908;51.426;7.714;2024-03-07T03:00:24;100595.59;;;0.53;100.00
71195;BME280;58908;51.426;7.714;2024-03-07T03:02:54;100591.28;;;0.52;100.00
71195;BME280;58908;51.426;7.714;2024-03-07T03:05:20;100590.41;;;0.47;100.00
71195;BME280;58908;51.426;7.714;2024-03-07T03:07:47;100586.13;;;0.45;100.00
71195;BME280;58908;51.426;7.714;2024-03-07T03:10:20;100596.50;;;0.42;100.00
71195;BME280;58908;51.426;7.714;2024-03-07T03:12:50;100580.06;;;0.41;100.00
71195;BME280;58908;51.426;7.714;2024-03-07T03:15:17;100592.19;;;0.33;100.00
71195;BME280;58908;51.426;7.714;2024-03-07T03:17:45;100580.06;;;0.38;100.00
71195;BME280;58908;51.426;7.714;2024-03-07T03:20:13;100584.44;;;0.35;100.00
71195;BME280;58908;51.426;7.714;2024-03-07T03:22:49;100570.53;;;0.52;100.00
71195;BME280;58908;51.426;7.714;2024-03-07T03:25:15;100566.94;;;0.79;100.00
71195;BME280;58908;51.426;7.714;2024-03-07T03:27:42;100562.50;;;0.94;100.00
71195;BME280;58908;51.426;7.714;2024-03-07T03:30:10;100556.56;;;0.79;100.00
71195;BME280;58908;51.426;7.714;2024-03-07T03:32:39;100563.56;;;0.59;100.00
71195;BME280;58908;51.426;7.714;2024-03-07T03:35:06;100563.63;;;0.45;100.00
71195;BME280;58908;51.426;7.714;2024-03-07T03:37:32;100558.47;;;0.39;100.00
71195;BME280;58908;51.426;7.714;2024-03-07T03:39:58;100557.50;;;0.60;100.00
71195;BME280;58908;51.426;7.714;2024-03-07T03:42:25;100563.53;;;0.62;100.00
71195;BME280;58908;51.426;7.714;2024-03-07T03:44:51;100567.94;;;0.48;100.00
71195;BME280;58908;51.426;7.714;2024-03-07T03:47:19;100560.13;;;0.49;100.00
71195;BME280;58908;51.426;7.714;2024-03-07T03:49:45;100559.28;;;0.49;100.00
71195;BME280;58908;51.426;7.714;2024-03-07T03:52:12;100556.72;;;0.44;100.00
71195;BME280;58908;51.426;7.714;2024-03-07T03:54:38;100555.88;;;0.27;100.00
71195;BME280;58908;51.426;7.714;2024-03-07T03:57:04;100559.41;;;0.16;100.00
71195;BME280;58908;51.426;7.714;2024-03-07T03:59:34;100559.41;;;0.05;100.00
71195;BME280;58908;51.426;7.714;2024-03-07T04:02:00;100559.44;;;0.08;100.00
71195;BME280;58908;51.426;7.714;2024-03-07T04:04:30;100561.16;;;0.06;100.00
71195;BME280;58908;51.426;7.714;2024-03-07T04:06:57;100559.44;;;0.08;100.00
71195;BME280;58908;51.426;7.714;2024-03-07T04:09:23;100562.00;;;0.07;100.00
71195;BME280;58908;51.426;7.714;2024-03-07T04:11:53;100559.44;;;0.04;100.00
71195;BME280;58908;51.426;7.714;2024-03-07T04:14:19;100562.06;;;0.01;100.00
71195;BME280;58908;51.426;7.714;2024-03-07T04:16:46;100554.16;;;0.31;100.00
71195;BME280;58908;51.426;7.714;2024-03-07T04:19:12;100544.66;;;0.30;100.00
71195;BME280;58908;51.426;7.714;2024-03-07T04:21:40;100551.50;;;0.44;100.00
71195;BME280;58908;51.426;7.714;2024-03-07T04:24:06;100554.09;;;0.47;100.00
71195;BME280;58908;51.426;7.714;2024-03-07T04:26:33;100549.59;;;0.79;100.00
71195;BME280;58908;51.426;7.714;2024-03-07T04:28:59;100552.09;;;0.96;100.00
71195;BME280;58908;51.426;7.714;2024-03-07T04:31:25;100543.38;;;1.06;100.00
71195;BME280;58908;51.426;7.714;2024-03-07T04:33:51;100547.88;;;0.78;100.00
71195;BME280;58908;51.426;7.714;2024-03-07T04:36:18;100549.66;;;0.73;100.00
71195;BME280;58908;51.426;7.714;2024-03-07T04:38:46;100543.59;;;0.68;100.00
71195;BME280;58908;51.426;7.714;2024-03-07T04:41:12;100547.97;;;0.60;100.00
71195;BME280;58908;51.426;7.714;2024-03-07T04:43:40;100545.38;;;0.60;100.00
71195;BME280;58908;51.426;7.714;2024-03-07T04:46:07;100548.06;;;0.47;100.00
71195;BME280;58908;51.426;7.714;2024-03-07T04:48:35;100547.19;;;0.43;100.00
71195;BME280;58908;51.426;7.714;2024-03-07T04:51:02;100551.50;;;0.43;100.00
71195;BME280;58908;51.426;7.714;2024-03-07T04:53:28;100546.31;;;0.44;100.00
71195;BME280;58908;51.426;7.714;2024-03-07T04:55:58;100550.66;;;0.47;100.00
71195;BME280;58908;51.426;7.714;2024-03-07T04:58:24;100549.81;;;0.40;100.00
71195;BME280;58908;51.426;7.714;2024-03-07T05:00:50;100547.25;;;0.31;100.00
71195;BME280;58908;51.426;7.714;2024-03-07T05:03:17;100553.31;;;0.30;100.00
71195;BME280;58908;51.426;7.714;2024-03-07T05:05:43;100551.56;;;0.28;100.00
71195;BME280;58908;51.426;7.714;2024-03-07T05:08:09;100560.28;;;0.10;100.00
71195;BME280;58908;51.426;7.714;2024-03-07T05:10:37;100565.47;;;0.01;100.00
71195;BME280;58908;51.426;7.714;2024-03-07T05:13:04;100563.75;;;-0.01;100.00
71195;BME280;58908;51.426;7.714;2024-03-07T05:15:31;100561.19;;;-0.20;100.00
71195;BME280;58908;51.426;7.714;2024-03-07T05:17:57;100563.81;;;-0.26;100.00
71195;BME280;58908;51.426;7.714;2024-03-07T05:20:23;100554.31;;;-0.29;100.00
71195;BME280;58908;51.426;7.714;2024-03-07T05:22:49;100557.78;;;-0.34;100.00
71195;BME280;58908;51.426;7.714;2024-03-07T05:25:16;100560.38;;;-0.33;100.00
71195;BME280;58908;51.426;7.714;2024-03-07T05:27:43;100556.91;;;-0.30;100.00
71195;BME280;58908;51.426;7.714;2024-03-07T05:30:11;100557.75;;;-0.24;100.00
71195;BME280;58908;51.426;7.714;2024-03-07T05:32:39;100556.88;;;-0.09;100.00
71195;BME280;58908;51.426;7.714;2024-03-07T05:35:07;100558.59;;;-0.05;100.00
71195;BME280;58908;51.426;7.714;2024-03-07T05:37:33;100552.56;;;-0.16;100.00
71195;BME280;58908;51.426;7.714;2024-03-07T05:39:59;100555.16;;;-0.31;100.00
71195;BME280;58908;51.426;7.714;2024-03-07T05:42:27;100556.88;;;-0.18;100.00
71195;BME280;58908;51.426;7.714;2024-03-07T05:44:54;100556.03;;;-0.10;100.00
71195;BME280;58908;51.426;7.714;2024-03-07T05:47:22;100556.88;;;-0.09;100.00
71195;BME280;58908;51.426;7.714;2024-03-07T05:49:48;100553.41;;;-0.04;100.00
71195;BME280;58908;51.426;7.714;2024-03-07T05:52:15;100551.69;;;-0.17;100.00
71195;BME280;58908;51.426;7.714;2024-03-07T05:54:42;100557.75;;;-0.27;100.00
71195;BME280;58908;51.426;7.714;2024-03-07T05:57:09;100568.97;;;-0.29;100.00
71195;BME280;58908;51.426;7.714;2024-03-07T05:59:36;100562.09;;;-0.32;100.00
71195;BME280;58908;51.426;7.714;2024-03-07T06:02:03;100567.28;;;-0.42;100.00
71195;BME280;58908;51.426;7.714;2024-03-07T06:04:31;100566.41;;;-0.34;100.00
71195;BME280;58908;51.426;7.714;2024-03-07T06:06:59;100567.25;;;-0.15;100.00
71195;BME280;58908;51.426;7.714;2024-03-07T06:09:25;100570.69;;;-0.04;100.00
71195;BME280;58908;51.426;7.714;2024-03-07T06:11:51;100568.97;;;-0.03;100.00
71195;BME280;58908;51.426;7.714;2024-03-07T06:14:18;100566.38;;;-0.25;100.00
71195;BME280;58908;51.426;7.714;2024-03-07T06:16:47;100580.25;;;-0.32;100.00
71195;BME280;58908;51.426;7.714;2024-03-07T06:19:13;100575.94;;;-0.37;100.00
71195;BME280;58908;51.426;7.714;2024-03-07T06:21:40;100574.19;;;-0.32;100.00
71195;BME280;58908;51.426;7.714;2024-03-07T06:24:07;100576.78;;;-0.23;100.00
71195;BME280;58908;51.426;7.714;2024-03-07T06:26:35;100584.53;;;-0.17;100.00
71195;BME280;58908;51.426;7.714;2024-03-07T06:29:11;100575.91;;;-0.21;100.00
71195;BME280;58908;51.426;7.714;2024-03-07T06:31:37;100583.69;;;-0.21;100.00
71195;BME280;58908;51.426;7.714;2024-03-07T06:34:04;100584.53;;;-0.13;100.00
71195;BME280;58908;51.426;7.714;2024-03-07T06:36:30;100577.59;;;-0.03;100.00
71195;BME280;58908;51.426;7.714;2024-03-07T06:38:59;100574.13;;;-0.01;100.00
71195;BME280;58908;51.426;7.714;2024-03-07T06:41:25;100581.91;;;0.03;100.00
71195;BME280;58908;51.426;7.714;2024-03-07T06:43:51;100581.03;;;0.15;100.00
71195;BME280;58908;51.426;7.714;2024-03-07T06:46:19;100583.59;;;0.27;100.00
71195;BME280;58908;51.426;7.714;2024-03-07T06:48:46;100590.44;;;0.40;100.00
71195;BME280;58908;51.426;7.714;2024-03-07T06:51:12;100583.53;;;0.37;100.00
71195;BME280;58908;51.426;7.714;2024-03-07T06:53:38;100588.78;;;0.28;100.00
71195;BME280;58908;51.426;7.714;2024-03-07T06:56:06;100582.75;;;0.11;100.00
71195;BME280;58908;51.426;7.714;2024-03-07T06:58:32;100589.69;;;0.06;100.00
71195;BME280;58908;51.426;7.714;2024-03-07T07:00:58;100590.50;;;0.23;100.00
71195;BME280;58908;51.426;7.714;2024-03-07T07:03:25;100586.16;;;0.36;100.00
71195;BME280;58908;51.426;7.714;2024-03-07T07:05:53;100583.53;;;0.45;100.00
71195;BME280;58908;51.426;7.714;2024-03-07T07:08:19;100587.00;;;0.39;100.00
71195;BME280;58908;51.426;7.714;2024-03-07T07:10:47;100580.06;;;0.43;100.00
71195;BME280;58908;51.426;7.714;2024-03-07T07:13:14;100581.72;;;0.57;100.00
71195;BME280;58908;51.426;7.714;2024-03-07T07:15:41;100576.50;;;0.66;100.00
71195;BME280;58908;51.426;7.714;2024-03-07T07:18:08;100578.16;;;0.81;100.00
71195;BME280;58908;51.426;7.714;2024-03-07T07:20:35;100573.81;;;0.87;100.00
71195;BME280;58908;51.426;7.714;2024-03-07T07:23:02;100569.44;;;0.94;100.00
71195;BME280;58908;51.426;7.714;2024-03-07T07:25:28;100575.50;;;0.91;100.00
71195;BME280;58908;51.426;7.714;2024-03-07T07:27:55;100574.56;;;1.04;100.00
71195;BME280;58908;51.426;7.714;2024-03-07T07:30:23;100571.91;;;1.13;100.00
71195;BME280;58908;51.426;7.714;2024-03-07T07:32:50;100570.97;;;1.25;100.00
71195;BME280;58908;51.426;7.714;2024-03-07T07:35:18;100560.56;;;1.28;100.00
71195;BME280;58908;51.426;7.714;2024-03-07T07:37:46;100563.13;;;1.31;100.00
71195;BME280;58908;51.426;7.714;2024-03-07T07:40:15;100565.66;;;1.40;100.00
71195;BME280;58908;51.426;7.714;2024-03-07T07:42:43;100563.91;;;1.45;100.00
71195;BME280;58908;51.426;7.714;2024-03-07T07:45:11;100558.63;;;1.52;100.00
71195;BME280;58908;51.426;7.714;2024-03-07T07:47:39;100549.06;;;1.56;100.00
71195;BME280;58908;51.426;7.714;2024-03-07T07:50:07;100553.31;;;1.64;100.00
71195;BME280;58908;51.426;7.714;2024-03-07T07:52:39;100558.63;;;1.49;100.00
71195;BME280;58908;51.426;7.714;2024-03-07T07:55:05;100569.13;;;1.40;100.00
71195;BME280;58908;51.426;7.714;2024-03-07T07:57:39;100578.81;;;1.14;100.00
71195;BME280;58908;51.426;7.714;2024-03-07T08:00:06;100575.28;;;1.26;100.00
71195;BME280;58908;51.426;7.714;2024-03-07T08:02:34;100576.09;;;1.35;100.00
71195;BME280;58908;51.426;7.714;2024-03-07T08:05:02;100573.38;;;1.47;100.00
71195;BME280;58908;51.426;7.714;2024-03-07T08:07:30;100563.16;;;1.29;100.00
71195;BME280;58908;51.426;7.714;2024-03-07T08:09:56;100569.03;;;1.52;100.00
71195;BME280;58908;51.426;7.714;2024-03-07T08:12:22;100554.09;;;1.75;100.00
71195;BME280;58908;51.426;7.714;2024-03-07T08:14:49;100552.09;;;2.01;100.00
71195;BME280;58908;51.426;7.714;2024-03-07T08:17:15;100543.25;;;2.16;100.00
71195;BME280;58908;51.426;7.714;2024-03-07T08:19:42;100553.75;;;2.08;100.00
71195;BME280;58908;51.426;7.714;2024-03-07T08:22:09;100546.41;;;2.44;100.00
71195;BME280;58908;51.426;7.714;2024-03-07T08:24:36;100553.03;;;2.66;100.00
71195;BME280;58908;51.426;7.714;2024-03-07T08:27:02;100547.94;;;2.60;100.00
71195;BME280;58908;51.426;7.714;2024-03-07T08:29:28;100545.22;;;2.66;100.00
71195;BME280;58908;51.426;7.714;2024-03-07T08:31:55;100557.56;;;2.55;100.00
71195;BME280;58908;51.426;7.714;2024-03-07T08:34:21;100557.56;;;2.55;100.00
71195;BME280;58908;51.426;7.714;2024-03-07T08:36:47;100552.91;;;2.78;100.00
71195;BME280;58908;51.426;7.714;2024-03-07T08:39:15;100563.28;;;2.80;100.00
71195;BME280;58908;51.426;7.714;2024-03-07T08:41:43;100554.28;;;3.03;100.00
71195;BME280;58908;51.426;7.714;2024-03-07T08:44:11;100551.75;;;2.99;100.00
71195;BME280;58908;51.426;7.714;2024-03-07T08:46:38;100549.84;;;3.10;100.00
71195;BME280;58908;51.426;7.714;2024-03-07T08:49:04;100551.13;;;3.39;100.00
71195;BME280;58908;51.426;7.714;2024-03-07T08:51:31;100558.16;;;3.34;100.00
71195;BME280;58908;51.426;7.714;2024-03-07T08:53:57;100553.28;;;3.12;100.00
71195;BME280;58908;51.426;7.714;2024-03-07T08:56:25;100551.06;;;3.42;100.00
71195;BME280;58908;51.426;7.714;2024-03-07T08:58:52;100557.97;;;3.46;100.00
71195;BME280;58908;51.426;7.714;2024-03-07T09:01:18;100553.31;;;3.63;100.00
71195;BME280;58908;51.426;7.714;2024-03-07T09:03:45;100551.06;;;3.42;100.00
71195;BME280;58908;51.426;7.714;2024-03-07T09:06:11;100556.19;;;3.48;100.00
71195;BME280;58908;51.426;7.714;2024-03-07T09:08:38;100551.81;;;3.52;100.00
71195;BME280;58908;51.426;7.714;2024-03-07T09:11:05;100547.88;;;3.77;100.00
71195;BME280;58908;51.426;7.714;2024-03-07T09:13:33;100552.00;;;3.88;100.00
71195;BME280;58908;51.426;7.714;2024-03-07T09:16:00;100552.69;;;3.99;100.00
71195;BME280;58908;51.426;7.714;2024-03-07T09:18:30;100544.13;;;4.37;100.00
71195;BME280;58908;51.426;7.714;2024-03-07T09:20:56;100540.38;;;4.90;100.00
71195;BME280;58908;51.426;7.714;2024-03-07T09:23:23;100537.69;;;4.93;100.00
71195;BME280;58908;51.426;7.714;2024-03-07T09:25:49;100540.53;;;4.84;100.00
71195;BME280;58908;51.426;7.714;2024-03-07T09:28:15;100533.59;;;5.20;100.00
71195;BME280;58908;51.426;7.714;2024-03-07T09:30:43;100527.63;;;5.51;100.00
71195;BME280;58908;51.426;7.714;2024-03-07T09:33:09;100517.69;;;5.64;100.00
71195;BME280;58908;51.426;7.714;2024-03-07T09:35:36;100522.06;;;5.63;100.00
71195;BME280;58908;51.426;7.714;2024-03-07T09:38:03;100513.09;;;6.07;100.00
71195;BME280;58908;51.426;7.714;2024-03-07T09:40:29;100516.34;;;6.47;100.00
71195;BME280;58908;51.426;7.714;2024-03-07T09:42:55;100513.28;;;6.31;100.00
71195;BME280;58908;51.426;7.714;2024-03-07T09:45:23;100506.47;;;6.24;100.00
71195;BME280;58908;51.426;7.714;2024-03-07T09:47:55;100503.88;;;6.82;100.00
71195;BME280;58908;51.426;7.714;2024-03-07T09:50:22;100500.75;;;6.98;100.00
71195;BME280;58908;51.426;7.714;2024-03-07T09:52:51;100486.25;;;8.17;100.00
71195;BME280;58908;51.426;7.714;2024-03-07T09:55:18;100478.69;;;8.08;100.00
71195;BME280;58908;51.426;7.714;2024-03-07T09:57:45;100470.09;;;8.73;100.00
71195;BME280;58908;51.426;7.714;2024-03-07T10:00:12;100480.81;;;7.72;100.00
71195;BME280;58908;51.426;7.714;2024-03-07T10:02:47;100492.22;;;7.19;100.00
71195;BME280;58908;51.426;7.714;2024-03-07T10:05:15;100496.63;;;7.19;100.00
71195;BME280;58908;51.426;7.714;2024-03-07T10:07:43;100490.13;;;7.81;100.00
71195;BME280;58908;51.426;7.714;2024-03-07T10:10:10;100505.19;;;6.97;100.00
71195;BME280;58908;51.426;7.714;2024-03-07T10:12:37;100497.38;;;6.95;100.00
71195;BME280;58908;51.426;7.714;2024-03-07T10:15:04;100515.91;;;6.89;100.00
71195;BME280;58908;51.426;7.714;2024-03-07T10:17:31;100508.06;;;6.89;100.00
71195;BME280;58908;51.426;7.714;2024-03-07T10:19:57;100506.66;;;7.05;100.00
71195;BME280;58908;51.426;7.714;2024-03-07T10:22:27;100504.66;;;7.13;100.00
71195;BME280;58908;51.426;7.714;2024-03-07T10:24:54;100502.94;;;6.85;100.00
71195;BME280;58908;51.426;7.714;2024-03-07T10:27:23;100495.59;;;7.49;100.00
71195;BME280;58908;51.426;7.714;2024-03-07T10:29:51;100487.22;;;7.38;100.00
71195;BME280;58908;51.426;7.714;2024-03-07T10:32:19;100484.34;;;7.71;100.00
71195;BME280;58908;51.426;7.714;2024-03-07T10:34:45;100479.69;;;7.29;100.00
71195;BME280;58908;51.426;7.714;2024-03-07T10:37:13;100483.56;;;6.89;100.00
71195;BME280;58908;51.426;7.714;2024-03-07T10:39:43;100494.00;;;6.92;100.00
71195;BME280;58908;51.426;7.714;2024-03-07T10:42:09;100485.09;;;7.23;100.00
71195;BME280;58908;51.426;7.714;2024-03-07T10:44:40;100489.91;;;7.36;100.00
71195;BME280;58908;51.426;7.714;2024-03-07T10:47:10;100486.72;;;7.27;100.00
71195;BME280;58908;51.426;7.714;2024-03-07T10:49:37;100492.88;;;7.26;100.00
71195;BME280;58908;51.426;7.714;2024-03-07T10:52:10;100494.81;;;7.21;100.00
71195;BME280;58908;51.426;7.714;2024-03-07T10:54:47;100489.25;;;7.56;100.00
71195;BME280;58908;51.426;7.714;2024-03-07T10:57:16;100481.88;;;7.67;100.00
71195;BME280;58908;51.426;7.714;2024-03-07T10:59:49;100478.44;;;7.65;100.00
71195;BME280;58908;51.426;7.714;2024-03-07T11:02:18;100480.06;;;7.43;100.00
71195;BME280;58908;51.426;7.714;2024-03-07T11:04:47;100474.22;;;7.35;100.00
71195;BME280;58908;51.426;7.714;2024-03-07T11:07:14;100483.91;;;7.33;100.00
71195;BME280;58908;51.426;7.714;2024-03-07T11:09:41;100477.34;;;7.46;100.00
71195;BME280;58908;51.426;7.714;2024-03-07T11:12:12;100469.28;;;7.76;100.00
71195;BME280;58908;51.426;7.714;2024-03-07T11:14:39;100466.44;;;7.58;100.00
71195;BME280;58908;51.426;7.714;2024-03-07T11:17:06;100468.56;;;7.73;100.00
71195;BME280;58908;51.426;7.714;2024-03-07T11:19:33;100460.91;;;7.65;100.00
71195;BME280;58908;51.426;7.714;2024-03-07T11:22:01;100456.72;;;7.86;100.00
71195;BME280;58908;51.426;7.714;2024-03-07T11:24:39;100451.72;;;8.27;100.00
71195;BME280;58908;51.426;7.714;2024-03-07T11:27:09;100449.09;;;8.27;100.00
71195;BME280;58908;51.426;7.714;2024-03-07T11:29:40;100444.19;;;8.17;100.00
71195;BME280;58908;51.426;7.714;2024-03-07T11:32:09;100431.34;;;8.32;100.00
71195;BME280;58908;51.426;7.714;2024-03-07T11:34:37;100420.56;;;8.63;100.00
71195;BME280;58908;51.426;7.714;2024-03-07T11:37:04;100417.00;;;8.18;100.00
71195;BME280;58908;51.426;7.714;2024-03-07T11:39:42;100419.16;;;8.07;100.00
71195;BME280;58908;51.426;7.714;2024-03-07T11:42:08;100428.22;;;7.98;100.00
71195;BME280;58908;51.426;7.714;2024-03-07T11:44:34;100432.00;;;7.91;100.00
71195;BME280;58908;51.426;7.714;2024-03-07T11:47:04;100417.38;;;8.07;100.00
71195;BME280;58908;51.426;7.714;2024-03-07T11:49:33;100422.88;;;8.01;100.00
71195;BME280;58908;51.426;7.714;2024-03-07T11:52:01;100427.13;;;8.04;100.00
71195;BME280;58908;51.426;7.714;2024-03-07T11:54:29;100426.69;;;8.16;100.00
71195;BME280;58908;51.426;7.714;2024-03-07T11:56:56;100414.88;;;8.04;100.00
71195;BME280;58908;51.426;7.714;2024-03-07T11:59:22;100412.91;;;8.09;100.00
71195;BME280;58908;51.426;7.714;2024-03-07T12:01:48;100412.06;;;8.33;100.00
71195;BME280;58908;51.426;7.714;2024-03-07T12:04:16;100400.81;;;8.30;100.00
71195;BME280;58908;51.426;7.714;2024-03-07T12:06:49;100398.78;;;8.13;100.00
71195;BME280;58908;51.426;7.714;2024-03-07T12:09:15;100399.88;;;8.08;100.00
71195;BME280;58908;51.426;7.714;2024-03-07T12:11:48;100404.41;;;8.27;100.00
71195;BME280;58908;51.426;7.714;2024-03-07T12:14:17;100396.66;;;8.00;100.00
71195;BME280;58908;51.426;7.714;2024-03-07T12:16:44;100394.31;;;7.92;100.00
71195;BME280;58908;51.426;7.714;2024-03-07T12:19:10;100389.59;;;8.25;100.00
71195;BME280;58908;51.426;7.714;2024-03-07T12:21:38;100383.72;;;7.94;100.00
71195;BME280;58908;51.426;7.714;2024-03-07T12:24:10;100384.34;;;8.25;100.00
71195;BME280;58908;51.426;7.714;2024-03-07T12:26:36;100375.78;;;8.20;100.00
71195;BME280;58908;51.426;7.714;2024-03-07T12:29:06;100358.63;;;8.10;100.00
71195;BME280;58908;51.426;7.714;2024-03-07T12:31:34;100341.91;;;7.89;100.00
71195;BME280;58908;51.426;7.714;2024-03-07T12:34:00;100336.84;;;8.06;100.00
71195;BME280;58908;51.426;7.714;2024-03-07T12:36:28;100337.38;;;7.93;100.00
71195;BME280;58908;51.426;7.714;2024-03-07T12:39:00;100343.19;;;7.78;100.00
71195;BME280;58908;51.426;7.714;2024-03-07T12:41:34;100360.22;;;7.91;100.00
71195;BME280;58908;51.426;7.714;2024-03-07T12:44:00;100357.81;;;7.85;100.00
71195;BME280;58908;51.426;7.714;2024-03-07T12:46:27;100368.97;;;7.67;100.00
71195;BME280;58908;51.426;7.714;2024-03-07T12:48:54;100359.31;;;7.44;100.00